createdAt,value
2022-12-18T00:01:34.293Z,87.36
2022-12-18T00:04:03.187Z,88.48
2022-12-18T00:06:30.822Z,88.95
2022-12-18T00:08:59.149Z,89.27
2022-12-18T00:11:29.235Z,88.93
2022-12-18T00:13:57.393Z,87.94
2022-12-18T00:16:26.491Z,86.91
2022-12-18T00:18:55.096Z,87.29
2022-12-18T00:21:22.720Z,87.46
2022-12-18T00:23:50.810Z,87.74
2022-12-18T00:26:23.822Z,88.61
2022-12-18T00:28:51.272Z,88.82
2022-12-18T00:31:21.187Z,89.19
2022-12-18T00:33:49.083Z,88.29
2022-12-18T00:36:24.120Z,88.69
2022-12-18T00:38:50.921Z,88.48
2022-12-18T00:41:38.791Z,88.40
2022-12-18T00:44:06.495Z,89.19
2022-12-18T00:46:33.400Z,88.82
2022-12-18T00:49:00.264Z,88.59
2022-12-18T00:51:27.637Z,88.68
2022-12-18T00:53:54.530Z,89.79
2022-12-18T00:56:21.148Z,89.47
2022-12-18T00:58:47.724Z,89.04
2022-12-18T01:01:14.568Z,89.55
2022-12-18T01:03:42.128Z,89.38
2022-12-18T01:06:10.859Z,89.69
2022-12-18T01:08:37.484Z,88.94
2022-12-18T01:11:19.397Z,88.51
2022-12-18T01:13:46.125Z,88.36
2022-12-18T01:16:14.024Z,88.58
2022-12-18T01:18:41.125Z,87.79
2022-12-18T01:21:17.027Z,87.48
2022-12-18T01:23:43.651Z,86.92
2022-12-18T01:26:13.621Z,87.66
2022-12-18T01:28:41.178Z,87.75
2022-12-18T01:31:34.627Z,88.21
2022-12-18T01:34:02.505Z,88.16
2022-12-18T01:36:32.156Z,87.31
2022-12-18T01:39:01.895Z,87.55
2022-12-18T01:41:49.351Z,87.77
2022-12-18T01:45:13.019Z,86.53
2022-12-18T01:47:52.911Z,86.38
2022-12-18T01:50:43.917Z,86.45
2022-12-18T01:53:19.885Z,87.09
2022-12-18T01:55:51.436Z,86.80
2022-12-18T01:58:19.841Z,87.25
2022-12-18T02:00:46.626Z,86.59
2022-12-18T02:03:13.833Z,86.88
2022-12-18T02:06:10.800Z,87.27
2022-12-18T02:08:49.452Z,86.92
2022-12-18T02:12:11.473Z,86.59
2022-12-18T02:15:01.048Z,86.85
2022-12-18T02:17:52.586Z,86.63
2022-12-18T02:20:26.357Z,87.76
2022-12-18T02:23:48.257Z,87.66
2022-12-18T02:26:34.412Z,87.07
2022-12-18T02:29:11.456Z,86.63
2022-12-18T02:31:44.339Z,86.36
2022-12-18T02:34:13.398Z,87.13
2022-12-18T02:36:43.505Z,86.63
2022-12-18T02:39:12.768Z,86.18
2022-12-18T02:41:40.540Z,85.65
2022-12-18T02:44:14.821Z,88.14
2022-12-18T02:46:49.801Z,91.16
2022-12-18T02:49:42.024Z,94.59
2022-12-18T02:52:42.994Z,95.65
2022-12-18T02:55:33.976Z,95.56
2022-12-18T02:58:47.884Z,94.54
2022-12-18T03:01:22.688Z,94.30
2022-12-18T03:03:56.654Z,93.66
2022-12-18T03:06:51.225Z,92.83
2022-12-18T03:09:27.101Z,92.56
2022-12-18T03:12:16.720Z,92.65
2022-12-18T03:14:46.432Z,92.12
2022-12-18T03:17:18.653Z,92.39
2022-12-18T03:19:48.662Z,92.07
2022-12-18T03:22:17.753Z,92.27
2022-12-18T03:24:47.272Z,91.82
2022-12-18T03:27:18.557Z,91.86
2022-12-18T03:29:50.032Z,91.15
2022-12-18T03:32:28.497Z,90.90
2022-12-18T03:34:58.581Z,90.24
2022-12-18T03:37:25.329Z,90.61
2022-12-18T03:39:52.067Z,90.95
2022-12-18T03:42:33.618Z,91.38
2022-12-18T03:45:14.964Z,91.14
2022-12-18T03:48:18.949Z,90.30
2022-12-18T03:51:22.833Z,88.82
2022-12-18T03:53:59.531Z,87.67
2022-12-18T03:56:34.505Z,88.17
2022-12-18T03:59:05.675Z,89.30
2022-12-18T04:01:39.095Z,90.68
2022-12-18T04:04:08.112Z,91.19
2022-12-18T04:06:35.034Z,90.00
2022-12-18T04:09:01.841Z,91.45
2022-12-18T04:11:28.566Z,91.83
2022-12-18T04:13:59.223Z,90.96
2022-12-18T04:16:28.320Z,90.90
2022-12-18T04:18:55.312Z,90.96
2022-12-18T04:21:22.409Z,89.49
2022-12-18T04:23:49.041Z,89.73
2022-12-18T04:26:15.692Z,89.89
2022-12-18T04:28:42.245Z,90.49
2022-12-18T04:31:09.203Z,89.88
2022-12-18T04:33:36.008Z,89.83
2022-12-18T04:36:02.733Z,89.24
2022-12-18T04:38:29.316Z,89.15
2022-12-18T04:40:55.944Z,88.59
2022-12-18T04:43:22.661Z,88.30
2022-12-18T04:45:49.300Z,87.66
2022-12-18T04:48:15.940Z,87.85
2022-12-18T04:50:42.571Z,88.30
2022-12-18T04:53:09.180Z,88.82
2022-12-18T04:55:36.728Z,89.19
2022-12-18T04:58:03.301Z,89.03
2022-12-18T05:00:29.887Z,89.01
2022-12-18T05:02:56.664Z,89.12
2022-12-18T05:05:23.400Z,88.99
2022-12-18T05:07:50.102Z,88.46
2022-12-18T05:10:16.724Z,87.70
2022-12-18T05:13:01.616Z,87.83
2022-12-18T05:15:32.701Z,88.83
2022-12-18T05:17:59.904Z,89.96
2022-12-18T05:20:28.024Z,90.85
2022-12-18T05:22:55.371Z,92.10
2022-12-18T05:25:22.743Z,92.36
2022-12-18T05:27:49.664Z,93.15
2022-12-18T05:30:17.266Z,93.18
2022-12-18T05:32:44.124Z,93.33
2022-12-18T05:35:11.943Z,93.25
2022-12-18T05:37:42.973Z,93.86
2022-12-18T05:40:10.998Z,94.05
2022-12-18T05:42:37.708Z,94.84
2022-12-18T05:45:05.437Z,95.86
2022-12-18T05:47:32.033Z,95.88
2022-12-18T05:49:58.688Z,96.55
2022-12-18T05:52:25.614Z,95.97
2022-12-18T05:54:52.260Z,95.67
2022-12-18T05:57:18.859Z,95.86
2022-12-18T05:59:45.705Z,95.09
2022-12-18T06:02:12.464Z,94.13
2022-12-18T06:04:39.183Z,93.19
2022-12-18T06:07:05.829Z,92.33
2022-12-18T06:09:33.024Z,92.70
2022-12-18T06:11:59.827Z,91.89
2022-12-18T06:14:26.624Z,92.43
2022-12-18T06:16:53.401Z,92.19
2022-12-18T06:19:20.067Z,92.08
2022-12-18T06:21:48.003Z,92.50
2022-12-18T06:24:14.612Z,92.65
2022-12-18T06:26:41.377Z,93.41
2022-12-18T06:29:08.033Z,93.79
2022-12-18T06:31:34.772Z,93.81
2022-12-18T06:34:04.499Z,93.28
2022-12-18T06:36:31.631Z,92.35
2022-12-18T06:38:58.603Z,92.20
2022-12-18T06:41:25.324Z,90.81
2022-12-18T06:43:55.581Z,89.45
2022-12-18T06:46:24.849Z,90.35
2022-12-18T06:48:51.544Z,90.45
2022-12-18T06:51:22.705Z,89.37
2022-12-18T06:53:49.437Z,90.09
2022-12-18T06:56:16.280Z,90.34
2022-12-18T06:58:43.111Z,90.34
2022-12-18T07:01:12.182Z,90.25
2022-12-18T07:03:43.387Z,89.91
2022-12-18T07:06:18.678Z,90.28
2022-12-18T07:08:46.212Z,90.44
2022-12-18T07:11:13.192Z,90.95
2022-12-18T07:13:40.165Z,89.49
2022-12-18T07:16:24.805Z,90.57
2022-12-18T07:18:52.131Z,90.70
2022-12-18T07:21:20.548Z,90.46
2022-12-18T07:23:49.095Z,90.94
2022-12-18T07:26:18.391Z,91.33
2022-12-18T07:28:45.079Z,90.31
2022-12-18T07:31:17.937Z,90.65
2022-12-18T07:33:45.276Z,90.42
2022-12-18T07:36:12.224Z,91.06
2022-12-18T07:38:39.146Z,91.94
2022-12-18T07:41:08.373Z,93.48
2022-12-18T07:43:35.939Z,94.29
2022-12-18T07:46:03.147Z,94.71
2022-12-18T07:48:30.184Z,93.96
2022-12-18T07:51:05.260Z,93.19
2022-12-18T07:53:32.677Z,93.28
2022-12-18T07:56:26.027Z,92.56
2022-12-18T07:58:47.463Z,92.02
2022-12-18T08:01:15.184Z,91.85
2022-12-18T08:03:42.304Z,91.46
2022-12-18T08:06:10.560Z,90.56
2022-12-18T08:08:37.901Z,90.03
2022-12-18T08:11:04.663Z,90.47
2022-12-18T08:13:31.266Z,90.87
2022-12-18T08:16:08.214Z,91.16
2022-12-18T08:18:36.351Z,90.38
2022-12-18T08:21:14.308Z,89.42
2022-12-18T08:23:43.394Z,89.28
2022-12-18T08:26:11.480Z,89.67
2022-12-18T08:28:38.432Z,89.90
2022-12-18T08:31:05.657Z,89.64
2022-12-18T08:33:33.527Z,89.33
2022-12-18T08:36:00.953Z,88.87
2022-12-18T08:38:27.708Z,88.63
2022-12-18T08:41:05.841Z,88.61
2022-12-18T08:43:51.229Z,88.04
2022-12-18T08:46:22.261Z,88.93
2022-12-18T08:48:51.006Z,89.34
2022-12-18T08:51:18.235Z,89.54
2022-12-18T08:53:48.052Z,89.26
2022-12-18T08:56:15.626Z,89.42
2022-12-18T08:58:42.788Z,89.16
2022-12-18T09:01:11.632Z,88.73
2022-12-18T09:03:39.352Z,88.44
2022-12-18T09:06:07.040Z,88.85
2022-12-18T09:08:33.623Z,88.44
2022-12-18T09:11:00.189Z,89.15
2022-12-18T09:13:26.880Z,88.72
2022-12-18T09:15:55.098Z,88.46
2022-12-18T09:18:23.824Z,87.89
2022-12-18T09:20:52.828Z,89.36
2022-12-18T09:23:19.423Z,88.37
2022-12-18T09:25:45.985Z,87.87
2022-12-18T09:28:15.526Z,88.41
2022-12-18T09:30:45.223Z,88.64
2022-12-18T09:33:12.068Z,88.94
2022-12-18T09:35:40.154Z,88.71
2022-12-18T09:38:07.074Z,89.02
2022-12-18T09:40:42.785Z,88.41
2022-12-18T09:43:20.498Z,88.20
2022-12-18T09:45:56.214Z,88.57
2022-12-18T09:48:53.788Z,88.65
2022-12-18T09:51:29.721Z,89.37
2022-12-18T09:54:06.936Z,89.73
2022-12-18T09:56:39.692Z,89.78
2022-12-18T09:59:06.560Z,89.43
2022-12-18T10:01:43.128Z,89.73
2022-12-18T10:04:11.330Z,90.09
2022-12-18T10:06:47.245Z,89.83
2022-12-18T10:09:33.097Z,89.14
2022-12-18T10:12:21.050Z,88.77
2022-12-18T10:15:11.764Z,88.79
2022-12-18T10:18:17.417Z,89.09
2022-12-18T10:20:51.226Z,89.21
2022-12-18T10:23:37.046Z,89.01
2022-12-18T10:26:10.885Z,89.26
2022-12-18T10:28:40.454Z,89.21
2022-12-18T10:31:15.339Z,88.47
2022-12-18T10:33:42.258Z,87.54
2022-12-18T10:36:08.941Z,86.90
2022-12-18T10:38:35.799Z,87.20
2022-12-18T10:41:03.498Z,86.94
2022-12-18T10:43:32.575Z,87.58
2022-12-18T10:46:07.113Z,88.02
2022-12-18T10:48:37.226Z,88.06
2022-12-18T10:51:12.644Z,88.60
2022-12-18T10:53:42.899Z,88.21
2022-12-18T10:56:09.924Z,88.40
2022-12-18T10:58:39.072Z,88.46
2022-12-18T11:01:23.643Z,87.85
2022-12-18T11:04:17.246Z,87.29
2022-12-18T11:06:58.748Z,88.08
2022-12-18T11:09:30.434Z,88.29
2022-12-18T11:12:00.480Z,88.99
2022-12-18T11:14:31.769Z,88.26
2022-12-18T11:17:24.823Z,87.89
2022-12-18T11:19:54.209Z,87.57
2022-12-18T11:22:36.015Z,87.23
2022-12-18T11:25:35.963Z,87.14
2022-12-18T11:28:25.983Z,87.29
2022-12-18T11:31:13.554Z,87.14
2022-12-18T11:34:04.843Z,86.73
2022-12-18T11:36:44.348Z,87.28
2022-12-18T11:39:19.237Z,87.65
2022-12-18T11:42:10.041Z,87.48
2022-12-18T11:45:12.154Z,87.63
2022-12-18T11:47:45.368Z,86.92
2022-12-18T11:50:17.070Z,87.07
2022-12-18T11:52:43.718Z,86.99
2022-12-18T11:55:17.221Z,86.51
2022-12-18T11:57:55.922Z,86.04
2022-12-18T12:00:24.267Z,86.61
2022-12-18T12:03:12.456Z,86.52
2022-12-18T12:06:09.131Z,86.56
2022-12-18T12:08:55.144Z,87.18
2022-12-18T12:12:15.233Z,87.11
2022-12-18T12:14:53.718Z,87.68
2022-12-18T12:17:46.431Z,87.54
2022-12-18T12:20:22.825Z,86.83
2022-12-18T12:23:26.062Z,86.84
2022-12-18T12:26:24.235Z,86.77
2022-12-18T12:29:30.784Z,87.20
2022-12-18T12:32:37.839Z,86.85
2022-12-18T12:35:27.733Z,86.32
2022-12-18T12:38:28.225Z,86.49
2022-12-18T12:41:05.082Z,86.56
2022-12-18T12:43:50.517Z,86.87
2022-12-18T12:46:20.732Z,87.60
2022-12-18T12:49:20.357Z,87.66
2022-12-18T12:51:51.141Z,87.45
2022-12-18T12:54:22.350Z,87.34
2022-12-18T12:57:27.529Z,87.88
2022-12-18T13:00:10.104Z,87.18
2022-12-18T13:03:31.213Z,86.46
2022-12-18T13:06:04.361Z,85.87
2022-12-18T13:08:52.304Z,86.33
2022-12-18T13:12:07.629Z,86.47
2022-12-18T13:14:40.657Z,86.06
2022-12-18T13:17:30.491Z,86.66
2022-12-18T13:20:12.898Z,86.80
2022-12-18T13:22:49.650Z,86.44
2022-12-18T13:25:42.736Z,86.49
2022-12-18T13:28:15.194Z,86.58
2022-12-18T13:31:02.947Z,85.82
2022-12-18T13:34:23.922Z,86.18
2022-12-18T13:36:35.278Z,87.13
2022-12-18T13:39:35.892Z,86.39
2022-12-18T13:42:56.726Z,86.27
2022-12-18T13:46:19.411Z,86.73
2022-12-18T13:49:32.617Z,87.01
2022-12-18T13:51:59.270Z,86.49
2022-12-18T13:54:54.494Z,85.70
2022-12-18T13:57:34.010Z,86.54
2022-12-18T14:00:29.461Z,87.05
2022-12-18T14:02:57.430Z,88.23
2022-12-18T14:05:36.132Z,88.34
2022-12-18T14:08:14.666Z,88.95
2022-12-18T14:10:48.379Z,88.82
2022-12-18T14:13:37.880Z,88.96
2022-12-18T14:16:06.729Z,88.89
2022-12-18T14:18:45.751Z,88.71
2022-12-18T14:21:22.559Z,89.04
2022-12-18T14:23:49.761Z,89.09
2022-12-18T14:26:32.357Z,89.59
2022-12-18T14:28:59.654Z,89.87
2022-12-18T14:31:29.372Z,90.39
2022-12-18T14:33:56.377Z,91.28
2022-12-18T14:36:29.100Z,91.25
2022-12-18T14:38:57.649Z,91.86
2022-12-18T14:41:25.473Z,92.27
2022-12-18T14:43:54.015Z,91.27
2022-12-18T14:46:34.749Z,91.43
2022-12-18T14:49:19.169Z,92.19
2022-12-18T14:52:09.305Z,92.78
2022-12-18T14:54:38.486Z,92.13
2022-12-18T14:57:27.403Z,92.91
2022-12-18T14:59:54.061Z,92.51
2022-12-18T15:02:29.077Z,93.09
2022-12-18T15:05:17.557Z,93.27
2022-12-18T15:07:51.009Z,92.96
2022-12-18T15:10:29.506Z,92.68
2022-12-18T15:13:23.432Z,92.17
2022-12-18T15:15:50.688Z,92.96
2022-12-18T15:18:21.101Z,92.95
2022-12-18T15:20:57.655Z,92.94
2022-12-18T15:23:47.111Z,92.81
2022-12-18T15:26:16.308Z,93.31
2022-12-18T15:28:53.468Z,92.58
2022-12-18T15:31:36.056Z,92.06
2022-12-18T15:34:13.796Z,92.33
2022-12-18T15:36:42.555Z,91.57
2022-12-18T15:39:13.433Z,91.75
2022-12-18T15:41:40.405Z,91.61
2022-12-18T15:44:24.455Z,91.62
2022-12-18T15:46:51.067Z,91.86
2022-12-18T15:49:17.633Z,91.94
2022-12-18T15:51:44.566Z,91.90
2022-12-18T15:54:17.114Z,91.95
2022-12-18T15:57:02.664Z,91.69
2022-12-18T15:59:29.467Z,92.63
2022-12-18T16:01:57.529Z,92.56
2022-12-18T16:04:25.727Z,92.82
2022-12-18T16:07:14.289Z,92.42
2022-12-18T16:09:41.779Z,91.99
2022-12-18T16:12:17.358Z,92.15
2022-12-18T16:14:44.279Z,92.32
2022-12-18T16:17:12.824Z,92.24
2022-12-18T16:19:39.666Z,92.30
2022-12-18T16:22:06.682Z,92.43
2022-12-18T16:24:34.587Z,91.81
2022-12-18T16:27:01.835Z,92.01
2022-12-18T16:29:30.374Z,91.93
2022-12-18T16:31:59.482Z,92.27
2022-12-18T16:34:32.091Z,92.01
2022-12-18T16:37:05.483Z,92.15
2022-12-18T16:39:36.429Z,92.17
2022-12-18T16:42:08.170Z,92.63
2022-12-18T16:44:35.166Z,93.21
2022-12-18T16:47:03.442Z,93.19
2022-12-18T16:49:30.608Z,92.84
2022-12-18T16:52:00.952Z,93.02
2022-12-18T16:54:30.507Z,92.99
2022-12-18T16:56:58.717Z,92.89
2022-12-18T16:59:26.815Z,92.50
2022-12-18T17:01:55.788Z,92.74
2022-12-18T17:04:23.013Z,92.93
2022-12-18T17:06:51.945Z,93.56
2022-12-18T17:09:25.429Z,92.54
2022-12-18T17:11:53.575Z,92.89
2022-12-18T17:14:26.554Z,92.76
2022-12-18T17:17:20.483Z,92.78
2022-12-18T17:20:03.540Z,92.42
2022-12-18T17:22:30.647Z,92.76
2022-12-18T17:24:57.669Z,92.20
2022-12-18T17:27:26.390Z,92.82
2022-12-18T17:29:56.746Z,92.75
2022-12-18T17:32:23.365Z,92.69
2022-12-18T17:34:56.955Z,93.02
2022-12-18T17:37:25.599Z,93.04
2022-12-18T17:39:55.742Z,92.65
2022-12-18T17:42:23.003Z,92.61
2022-12-18T17:44:51.127Z,92.88
2022-12-18T17:47:17.862Z,92.04
2022-12-18T17:49:46.272Z,92.54
2022-12-18T17:52:12.953Z,91.50
2022-12-18T17:54:42.001Z,91.53
2022-12-18T17:57:11.379Z,91.94
2022-12-18T17:59:38.114Z,92.37
2022-12-18T18:02:07.256Z,92.67
2022-12-18T18:04:34.880Z,92.20
2022-12-18T18:07:01.413Z,91.59
2022-12-18T18:09:28.106Z,92.19
2022-12-18T18:12:13.312Z,92.78
2022-12-18T18:14:40.207Z,92.16
2022-12-18T18:17:07.210Z,92.22
2022-12-18T18:19:34.276Z,91.74
2022-12-18T18:22:01.627Z,91.99
2022-12-18T18:24:29.674Z,92.28
2022-12-18T18:26:56.548Z,92.02
2022-12-18T18:29:26.863Z,91.38
2022-12-18T18:31:53.815Z,92.26
2022-12-18T18:34:23.470Z,91.68
2022-12-18T18:36:50.251Z,92.24
2022-12-18T18:39:17.194Z,92.01
2022-12-18T18:41:47.863Z,92.13
2022-12-18T18:44:15.724Z,91.73
2022-12-18T18:46:42.382Z,91.82
2022-12-18T18:49:09.749Z,92.08
2022-12-18T18:51:36.319Z,92.04
2022-12-18T18:54:02.947Z,91.91
2022-12-18T18:59:16.961Z,91.39
2022-12-18T19:01:44.092Z,90.99
2022-12-18T19:04:10.900Z,91.00
2022-12-18T19:06:37.568Z,91.02
2022-12-18T19:09:06.582Z,91.67
2022-12-18T19:11:52.131Z,90.64
2022-12-18T19:14:18.847Z,90.88
2022-12-18T19:16:45.775Z,91.36
2022-12-18T19:19:13.749Z,90.81
2022-12-18T19:21:40.722Z,90.87
2022-12-18T19:24:07.899Z,91.14
2022-12-18T19:26:37.505Z,90.55
2022-12-18T19:29:06.293Z,91.27
2022-12-18T19:31:36.067Z,91.46
2022-12-18T19:34:06.653Z,91.70
2022-12-18T19:36:35.555Z,91.49
2022-12-18T19:39:07.328Z,91.74
2022-12-18T19:41:34.020Z,91.29
2022-12-18T19:44:08.091Z,90.79
2022-12-18T19:46:35.908Z,90.43
2022-12-18T19:49:02.979Z,91.40
2022-12-18T19:51:31.322Z,90.28
2022-12-18T19:54:01.071Z,90.83
2022-12-18T19:56:31.442Z,90.43
2022-12-18T19:58:58.390Z,91.38
2022-12-18T20:01:26.699Z,91.10
2022-12-18T20:03:54.662Z,91.01
2022-12-18T20:06:31.054Z,91.05
2022-12-18T20:09:01.086Z,90.52
2022-12-18T20:11:32.746Z,90.69
2022-12-18T20:14:02.244Z,91.08
2022-12-18T20:16:29.048Z,91.62
2022-12-18T20:18:57.379Z,91.06
2022-12-18T20:21:24.304Z,90.25
2022-12-18T20:23:51.288Z,90.92
2022-12-18T20:26:17.982Z,90.61
2022-12-18T20:28:44.759Z,90.40
2022-12-18T20:31:13.643Z,90.89
2022-12-18T20:33:41.704Z,90.48
2022-12-18T20:36:13.749Z,90.71
2022-12-18T20:38:41.521Z,90.35
2022-12-18T20:41:15.356Z,90.57
2022-12-18T20:43:42.391Z,91.10
2022-12-18T20:46:12.191Z,91.11
2022-12-18T20:48:39.967Z,91.69
2022-12-18T20:51:09.680Z,91.58
2022-12-18T20:53:36.583Z,91.91
2022-12-18T20:56:17.776Z,91.87
2022-12-18T20:58:48.521Z,91.78
2022-12-18T21:01:19.596Z,91.09
2022-12-18T21:03:47.087Z,90.88
2022-12-18T21:06:15.722Z,91.56
2022-12-18T21:08:42.850Z,91.00
2022-12-18T21:11:54.165Z,91.18
2022-12-18T21:14:26.360Z,91.24
2022-12-18T21:16:55.854Z,91.45
2022-12-18T21:19:25.391Z,91.21
2022-12-18T21:21:52.990Z,91.41
2022-12-18T21:24:20.157Z,91.56
2022-12-18T21:26:48.320Z,91.58
2022-12-18T21:29:17.968Z,90.39
2022-12-18T21:31:45.451Z,91.45
2022-12-18T21:34:18.715Z,91.05
2022-12-18T21:36:45.841Z,91.05
2022-12-18T21:39:14.233Z,90.83
2022-12-18T21:42:01.292Z,90.58
2022-12-18T21:44:28.081Z,90.67
2022-12-18T21:46:58.358Z,90.13
2022-12-18T21:49:30.651Z,90.12
2022-12-18T21:51:58.398Z,89.59
2022-12-18T21:54:26.501Z,89.98
2022-12-18T21:56:59.506Z,89.95
2022-12-18T21:59:40.352Z,90.56
2022-12-18T22:02:15.964Z,91.19
2022-12-18T22:04:43.890Z,90.21
2022-12-18T22:07:10.714Z,90.53
2022-12-18T22:09:38.207Z,90.48
2022-12-18T22:12:05.504Z,91.64
2022-12-18T22:14:32.396Z,91.16
2022-12-18T22:16:59.033Z,90.62
2022-12-18T22:19:26.686Z,90.88
2022-12-18T22:21:54.037Z,90.46
2022-12-18T22:24:25.574Z,90.22
2022-12-18T22:27:01.782Z,90.51
2022-12-18T22:29:47.507Z,89.74
2022-12-18T22:32:30.972Z,90.47
2022-12-18T22:35:07.210Z,90.53
2022-12-18T22:37:35.933Z,91.10
2022-12-18T22:40:05.134Z,90.96
2022-12-18T22:42:32.725Z,89.38
2022-12-18T22:45:00.385Z,90.58
2022-12-18T22:47:30.019Z,90.41
2022-12-18T22:49:58.051Z,89.44
2022-12-18T22:52:24.815Z,89.78
2022-12-18T22:54:53.379Z,89.85
2022-12-18T22:57:21.668Z,89.31
2022-12-18T22:59:49.102Z,90.20
2022-12-18T23:02:15.811Z,90.54
2022-12-18T23:04:42.469Z,89.98
2022-12-18T23:07:09.051Z,89.45
2022-12-18T23:09:37.892Z,89.83
2022-12-18T23:12:05.077Z,89.40
2022-12-18T23:14:31.874Z,89.54
2022-12-18T23:16:58.518Z,90.05
2022-12-18T23:19:25.615Z,89.33
2022-12-18T23:21:52.204Z,90.24
2022-12-18T23:24:21.358Z,89.57
2022-12-18T23:26:47.964Z,90.68
2022-12-18T23:29:14.563Z,89.88
2022-12-18T23:31:41.220Z,90.15
2022-12-18T23:34:08.818Z,89.89
2022-12-18T23:36:45.466Z,91.05
2022-12-18T23:39:22.339Z,89.94
2022-12-18T23:42:00.397Z,89.99
2022-12-18T23:44:27.415Z,89.92
2022-12-18T23:46:54.520Z,90.15
2022-12-18T23:49:21.194Z,90.23
2022-12-18T23:51:47.917Z,89.27
2022-12-18T23:54:14.516Z,89.78
2022-12-18T23:56:41.108Z,89.37
2022-12-18T23:59:07.736Z,89.88
